Terminal Aerodrome Forecast
Issued by NWS

Home | Current Version | Previous Version | Text Only | Print | Product List | Glossary On
Versions: 1 2 3 4 5 6 7 8 9 10 11 12 13 14 15 16 17 18 19 20 21 22 23 24 25 26 27 28
000
FTUS43 KDLH 230500
TAFHIB
TAF
KHIB 230537Z 2306/2406 16010KT 4SM BR OVC004
      TEMPO 2306/2309 1 1/2SM -DZ BR VV002
     FM230900 15008KT 1 1/2SM -DZ BR VV002
     FM231400 VRB05KT 4SM BR BKN015
     FM240200 32010KT 5SM -FZDZSN OVC012=

USA.gov is the U.S. government's official web portal to all federal, state and local government web resources and services.